Air Resources Laboratory banner image
Air Resources Laboratory web site National Oceanic and Atmospheric Administration (NOAA)

ks metar


K3K3 170655Z AUTO 25005KT 10SM CLR 00/00 A3043 RMK AO2=
KAAO 170654Z AUTO 28007KT 10SM CLR 09/03 A3033 RMK AO2 SLP270 T00890033=
KCBK 170655Z AUTO 29007KT 10SM CLR 02/00 A3042 RMK AO2=
KCFV 170652Z AUTO 00000KT 10SM CLR 04/03 A3032 RMK AO2 SLP270 T00390033=
KCNK 170655Z AUTO 27004KT 10SM CLR 07/04 A3034 RMK AO2 SLP274 T00670039=
KCNU 170652Z AUTO 00000KT 10SM CLR 04/03 A3031 RMK AO2 SLP264 T00440033=
KDDC 170652Z AUTO 30005KT 10SM CLR 06/01 A3037 RMK AO2 SLP279 T00560011=
KEHA 170655Z AUTO 30005KT 10SM CLR 08/04 A3040 RMK AO2 T00770042=
KEMP 170653Z AUTO 30004KT 10SM CLR 07/02 A3031 RMK AO2 SLP266 T00720022=
KEWK 170656Z AUTO 26004KT 10SM CLR 07/02 A3033 RMK AO2 SLP269 T00670022=
KFOE 170653Z AUTO 28003KT 10SM CLR 04/03 A3032 RMK AO2 SLP267 T00440028 TSNO=
KFRI 170656Z AUTO 00000KT 10SM CLR 06/04 A3033 RMK AO2 SLP271 T00590037=
KGBD 170656Z AUTO 29007KT 10SM CLR 05/03 A3036 RMK AO2 SLP280 T00500028=
KGCK 170654Z AUTO 32008KT 10SM CLR 02/00 A3039 RMK AO2 SLP289 T00170000=
KGLD 170653Z AUTO 25005KT 10SM CLR 02/00 A3041 RMK AO2 SLP293 T00220000
 401781022 $=
KHLC 170653Z AUTO 28004KT 10SM CLR 04/02 A3039 RMK AO2 SLP290 T00440017=
KHUT 170652Z AUTO 31003KT 10SM CLR 07/06 A3033 RMK AO2 SLP264 T00670056=
KHYS 170656Z AUTO 30005KT 10SM CLR 04/02 A3037 RMK AO2 SLP287 T00440022=
KIAB 170656Z AUTO 00000KT 10SM CLR 07/03 A3033 RMK AO2 SLP275 T00710026 $=
KICT 170653Z 30004KT 10SM FEW250 06/03 A3032 RMK AO2 SLP269 T00610033 $=
KIXD 170653Z AUTO 29004KT 10SM CLR 08/03 A3032 RMK AO2 SLP266 T00780033=
KLBL 170656Z AUTO 33007KT 10SM CLR 04/02 A3039 RMK AO2 SLP288 T00390022=
KLWC 170652Z AUTO 33004KT 10SM CLR 04/03 A3031 RMK AO2 SLP265 T00390033=
KMHK 170652Z AUTO 00000KT 10SM CLR 04/04 A3033 RMK AO2 SLP272 T00440039=
KOJC 170653Z AUTO 28004KT 10SM CLR 09/03 A3030 RMK AO2 SLP261 T00890033=
KP28 170656Z AUTO 36003KT 05/03 A3034 RMK AO1 SLP275 T00500033=
KPPF 170652Z AUTO 00000KT CLR 03/03 A3033 RMK AO2 SLP270 T00330033 $=
KRSL 170653Z AUTO 28004KT 4SM BR CLR 06/04 A3034 RMK AO2 SLP277 T00560039 $=
KSLN 170653Z AUTO 00000KT 10SM CLR 07/04 A3034 RMK AO2 SLP274 T00720044=
KSYF 170655Z AUTO 24007KT 10SM CLR 02/00 A3043 RMK AO2 T00150000=
KTOP 170653Z AUTO 00000KT 10SM CLR 06/03 A3031 RMK AO2 SLP265 T00560033=
KWLD 170654Z AUTO 00000KT 10SM CLR 04/03 A3034 RMK AO2 SLP274 T00390033=